createdAt,value
2022-12-20T00:01:31.117Z,88.30
2022-12-20T00:04:02.261Z,88.38
2022-12-20T00:06:31.340Z,87.15
2022-12-20T00:09:00.431Z,86.31
2022-12-20T00:11:29.755Z,85.40
2022-12-20T00:13:57.537Z,85.90
2022-12-20T00:16:27.458Z,85.92
2022-12-20T00:18:57.238Z,85.96
2022-12-20T00:21:25.947Z,85.61
2022-12-20T00:23:55.413Z,86.30
2022-12-20T00:26:25.970Z,86.05
2022-12-20T00:28:54.079Z,86.49
2022-12-20T00:31:23.207Z,86.50
2022-12-20T00:33:52.649Z,85.20
2022-12-20T00:36:21.615Z,86.26
2022-12-20T00:38:51.263Z,86.42
2022-12-20T00:41:21.523Z,86.52
2022-12-20T00:43:49.892Z,86.40
2022-12-20T00:46:19.139Z,87.10
2022-12-20T00:48:46.754Z,87.36
2022-12-20T00:51:16.981Z,87.36
2022-12-20T00:53:45.401Z,86.51
2022-12-20T00:56:13.641Z,86.28
2022-12-20T00:58:44.134Z,87.02
2022-12-20T01:01:21.013Z,87.31
2022-12-20T01:03:49.151Z,87.58
2022-12-20T01:06:17.300Z,87.20
2022-12-20T01:08:45.341Z,87.21
2022-12-20T01:11:15.562Z,87.46
2022-12-20T01:13:47.153Z,86.72
2022-12-20T01:16:17.219Z,86.83
2022-12-20T01:18:45.645Z,87.04
2022-12-20T01:21:15.230Z,87.04
2022-12-20T01:23:43.439Z,87.32
2022-12-20T01:26:14.827Z,86.94
2022-12-20T01:28:45.935Z,87.34
2022-12-20T01:31:16.079Z,86.57
2022-12-20T01:33:44.589Z,86.20
2022-12-20T01:36:13.967Z,86.54
2022-12-20T01:38:41.917Z,86.19
2022-12-20T01:41:16.552Z,86.10
2022-12-20T01:43:51.941Z,85.75
2022-12-20T01:46:20.845Z,85.62
2022-12-20T01:48:53.461Z,85.50
2022-12-20T01:51:21.985Z,85.43
2022-12-20T01:53:55.697Z,85.24
2022-12-20T01:56:23.799Z,84.42
2022-12-20T01:58:55.514Z,85.30
2022-12-20T02:01:24.262Z,84.87
2022-12-20T02:03:54.921Z,84.69
2022-12-20T02:06:25.921Z,84.73
2022-12-20T02:08:57.971Z,84.61
2022-12-20T02:11:39.453Z,85.09
2022-12-20T02:14:20.085Z,84.60
2022-12-20T02:16:56.239Z,84.19
2022-12-20T02:19:43.135Z,84.28
2022-12-20T02:22:25.291Z,84.32
2022-12-20T02:25:14.831Z,84.09
2022-12-20T02:27:49.970Z,84.35
2022-12-20T02:30:20.852Z,84.89
2022-12-20T02:32:58.216Z,85.14
2022-12-20T02:35:29.656Z,84.86
2022-12-20T02:37:58.731Z,85.41
2022-12-20T02:40:30.575Z,85.62
2022-12-20T02:43:01.518Z,85.16
2022-12-20T02:45:33.929Z,85.68
2022-12-20T02:48:04.479Z,86.55
2022-12-20T02:50:37.434Z,86.34
2022-12-20T02:53:06.342Z,85.94
2022-12-20T02:55:42.247Z,85.89
2022-12-20T02:58:17.197Z,85.85
2022-12-20T03:00:49.979Z,85.38
2022-12-20T03:03:23.944Z,85.43
2022-12-20T03:05:53.594Z,86.04
2022-12-20T03:08:22.894Z,86.22
2022-12-20T03:10:50.712Z,86.89
2022-12-20T03:13:19.220Z,87.17
2022-12-20T03:15:48.223Z,87.42
2022-12-20T03:18:15.999Z,86.98
2022-12-20T03:20:44.075Z,86.87
2022-12-20T03:23:11.722Z,86.99
2022-12-20T03:25:39.440Z,86.53
2022-12-20T03:28:07.157Z,86.62
2022-12-20T03:30:35.067Z,86.37
2022-12-20T03:33:04.384Z,85.51
2022-12-20T03:35:32.003Z,85.58
2022-12-20T03:37:59.665Z,85.63
2022-12-20T03:40:28.724Z,86.25
2022-12-20T03:42:56.387Z,86.38
2022-12-20T03:45:23.943Z,86.03
2022-12-20T03:47:51.557Z,86.00
2022-12-20T03:50:20.556Z,87.05
2022-12-20T03:52:48.278Z,86.88
2022-12-20T03:55:16.090Z,87.46
2022-12-20T03:57:43.721Z,87.40
2022-12-20T04:00:12.799Z,87.40
2022-12-20T04:02:40.649Z,86.99
2022-12-20T04:05:09.146Z,87.14
2022-12-20T04:07:38.602Z,86.58
2022-12-20T04:10:07.809Z,86.73
2022-12-20T04:12:35.364Z,86.59
2022-12-20T04:15:02.991Z,85.70
2022-12-20T04:17:30.719Z,85.60
2022-12-20T04:19:58.295Z,85.93
2022-12-20T04:22:26.099Z,85.95
2022-12-20T04:24:55.265Z,85.55
2022-12-20T04:27:22.903Z,86.08
2022-12-20T04:29:50.446Z,85.70
2022-12-20T04:32:18.041Z,86.20
2022-12-20T04:34:45.572Z,86.81
2022-12-20T04:37:13.106Z,86.94
2022-12-20T04:39:40.777Z,86.79
2022-12-20T04:42:11.803Z,86.79
2022-12-20T04:44:39.386Z,86.34
2022-12-20T04:47:06.976Z,86.74
2022-12-20T04:49:34.562Z,87.33
2022-12-20T04:52:22.105Z,88.27
2022-12-20T04:54:48.824Z,88.36
2022-12-20T04:57:17.744Z,87.11
2022-12-20T04:59:45.324Z,87.89
2022-12-20T05:02:13.133Z,87.73
2022-12-20T05:04:40.754Z,87.22
2022-12-20T05:07:08.298Z,87.08
2022-12-20T05:09:35.915Z,87.04
2022-12-20T05:12:03.493Z,87.54
2022-12-20T05:14:32.513Z,87.92
2022-12-20T05:17:00.105Z,88.00
2022-12-20T05:19:27.717Z,88.01
2022-12-20T05:22:12.733Z,87.13
2022-12-20T05:24:58.131Z,87.84
2022-12-20T05:27:25.750Z,88.02
2022-12-20T05:29:56.803Z,88.21
2022-12-20T05:32:24.404Z,87.68
2022-12-20T05:34:52.045Z,87.19
2022-12-20T05:37:19.624Z,86.91
2022-12-20T05:39:47.193Z,87.00
2022-12-20T05:42:14.832Z,86.97
2022-12-20T05:44:42.422Z,87.79
2022-12-20T05:47:11.424Z,88.22
2022-12-20T05:49:39.190Z,87.41
2022-12-20T05:52:06.755Z,87.83
2022-12-20T05:54:34.764Z,87.36
2022-12-20T05:57:02.316Z,86.80
2022-12-20T05:59:29.900Z,86.67
2022-12-20T06:01:57.681Z,87.50
2022-12-20T06:04:26.854Z,86.96
2022-12-20T06:06:54.429Z,88.33
2022-12-20T06:09:22.522Z,87.93
2022-12-20T06:11:50.118Z,88.36
2022-12-20T06:14:17.701Z,88.58
2022-12-20T06:16:45.343Z,87.82
2022-12-20T06:19:17.686Z,88.00
2022-12-20T06:21:50.241Z,88.08
2022-12-20T06:24:18.721Z,88.88
2022-12-20T06:26:46.385Z,88.89
2022-12-20T06:29:17.343Z,88.76
2022-12-20T06:31:45.179Z,89.19
2022-12-20T06:34:12.935Z,89.03
2022-12-20T06:36:40.586Z,88.69
2022-12-20T06:39:10.191Z,89.09
2022-12-20T06:41:37.991Z,88.27
2022-12-20T06:44:05.959Z,88.96
2022-12-20T06:46:33.690Z,89.47
2022-12-20T06:49:01.320Z,89.85
2022-12-20T06:51:29.044Z,89.18
2022-12-20T06:53:59.096Z,89.42
2022-12-20T06:56:28.139Z,90.29
2022-12-20T06:58:55.763Z,89.48
2022-12-20T07:01:23.480Z,89.11
2022-12-20T07:03:52.489Z,88.84
2022-12-20T07:06:20.308Z,88.84
2022-12-20T07:08:48.071Z,88.37
2022-12-20T07:11:15.835Z,88.98
2022-12-20T07:13:44.737Z,88.55
2022-12-20T07:16:12.529Z,88.63
2022-12-20T07:18:40.259Z,87.55
2022-12-20T07:21:08.521Z,87.55
2022-12-20T07:23:36.175Z,87.59
2022-12-20T07:26:05.979Z,87.60
2022-12-20T07:28:33.587Z,88.02
2022-12-20T07:31:03.915Z,87.50
2022-12-20T07:33:32.990Z,86.98
2022-12-20T07:36:03.913Z,87.47
2022-12-20T07:38:31.742Z,87.62
2022-12-20T07:41:00.585Z,86.31
2022-12-20T07:43:28.597Z,85.93
2022-12-20T07:45:57.350Z,86.02
2022-12-20T07:48:26.290Z,85.33
2022-12-20T07:50:58.357Z,86.01
2022-12-20T07:53:28.150Z,86.09
2022-12-20T07:55:58.178Z,85.58
2022-12-20T07:58:26.804Z,84.77
2022-12-20T08:00:54.703Z,84.46
2022-12-20T08:03:26.398Z,84.58
2022-12-20T08:06:03.732Z,84.69
2022-12-20T08:08:33.616Z,84.89
2022-12-20T08:11:02.374Z,84.74
2022-12-20T08:13:30.150Z,84.69
2022-12-20T08:15:57.951Z,84.75
2022-12-20T08:18:25.700Z,85.10
2022-12-20T08:20:54.675Z,84.60
2022-12-20T08:23:22.209Z,84.38
2022-12-20T08:25:50.224Z,84.45
2022-12-20T08:28:17.788Z,84.67
2022-12-20T08:30:45.416Z,84.68
2022-12-20T08:33:13.193Z,85.33
2022-12-20T08:35:41.164Z,84.96
2022-12-20T08:38:10.163Z,84.59
2022-12-20T08:40:39.718Z,84.09
2022-12-20T08:43:10.394Z,82.72
2022-12-20T08:45:40.283Z,82.44
2022-12-20T08:48:08.235Z,82.67
2022-12-20T08:50:36.232Z,81.48
2022-12-20T08:53:03.954Z,82.04
2022-12-20T08:55:33.074Z,82.02
2022-12-20T08:58:00.710Z,83.17
2022-12-20T09:00:28.364Z,82.90
2022-12-20T09:02:56.181Z,83.14
2022-12-20T09:05:23.966Z,84.27
2022-12-20T09:07:51.606Z,84.17
2022-12-20T09:10:19.323Z,84.58
2022-12-20T09:12:48.208Z,85.10
2022-12-20T09:15:16.037Z,84.21
2022-12-20T09:17:43.681Z,83.34
2022-12-20T09:20:11.689Z,82.67
2022-12-20T09:22:39.790Z,82.26
2022-12-20T09:25:08.405Z,81.55
2022-12-20T09:27:36.008Z,81.49
2022-12-20T09:30:05.589Z,81.49
2022-12-20T09:32:33.241Z,80.93
2022-12-20T09:35:02.667Z,80.73
2022-12-20T09:37:31.075Z,81.17
2022-12-20T09:39:59.293Z,81.04
2022-12-20T09:42:28.850Z,80.83
2022-12-20T09:45:02.624Z,81.38
2022-12-20T09:51:04.166Z,80.93
2022-12-20T09:53:44.319Z,81.04
2022-12-20T09:56:15.242Z,79.96
2022-12-20T09:59:05.004Z,79.60
2022-12-20T10:01:39.586Z,78.87
2022-12-20T10:04:19.302Z,79.35
2022-12-20T10:06:59.550Z,79.03
2022-12-20T10:09:43.930Z,78.59
2022-12-20T10:12:23.278Z,79.46
2022-12-20T10:15:14.131Z,78.53
2022-12-20T10:17:51.414Z,77.69
2022-12-20T10:20:30.672Z,78.73
2022-12-20T10:23:02.680Z,78.06
2022-12-20T10:25:32.015Z,77.78
2022-12-20T10:28:02.560Z,79.32
2022-12-20T10:30:30.516Z,80.08
2022-12-20T10:32:59.157Z,80.83
2022-12-20T10:35:31.394Z,80.94
2022-12-20T10:38:07.453Z,81.58
2022-12-20T10:41:09.899Z,80.84
2022-12-20T10:43:26.608Z,81.85
2022-12-20T10:45:59.669Z,80.99
2022-12-20T10:48:30.857Z,81.04
2022-12-20T10:51:02.420Z,80.51
2022-12-20T10:53:31.007Z,80.64
2022-12-20T10:56:17.742Z,80.71
2022-12-20T10:58:53.922Z,79.87
2022-12-20T11:01:23.830Z,79.31
2022-12-20T11:03:58.117Z,79.60
2022-12-20T11:06:32.641Z,78.97
2022-12-20T11:09:25.691Z,79.66
2022-12-20T11:12:16.335Z,78.88
2022-12-20T11:14:46.111Z,78.78
2022-12-20T11:17:27.831Z,78.11
2022-12-20T11:20:09.568Z,77.12
2022-12-20T11:22:51.017Z,77.28
2022-12-20T11:25:36.007Z,77.47
2022-12-20T11:28:19.286Z,78.03
2022-12-20T11:30:58.745Z,77.82
2022-12-20T11:33:46.873Z,77.55
2022-12-20T11:36:25.579Z,78.24
2022-12-20T11:39:03.444Z,77.71
2022-12-20T11:41:37.834Z,78.00
2022-12-20T11:44:25.468Z,77.62
2022-12-20T11:47:18.146Z,77.67
2022-12-20T11:50:03.269Z,76.74
2022-12-20T11:52:36.929Z,77.14
2022-12-20T11:55:17.808Z,77.90
2022-12-20T11:58:16.745Z,79.16
2022-12-20T12:00:41.967Z,81.07
2022-12-20T12:03:16.331Z,81.57
2022-12-20T12:05:47.749Z,81.79
2022-12-20T12:08:21.445Z,81.50
2022-12-20T12:10:59.307Z,82.51
2022-12-20T12:13:29.436Z,81.54
2022-12-20T12:16:03.265Z,81.86
2022-12-20T12:18:32.472Z,82.29
2022-12-20T12:21:09.835Z,83.77
2022-12-20T12:23:49.234Z,83.62
2022-12-20T12:26:23.822Z,83.60
2022-12-20T12:28:55.707Z,83.97
2022-12-20T12:31:31.129Z,83.48
2022-12-20T12:34:09.756Z,83.00
2022-12-20T12:36:56.876Z,82.09
2022-12-20T12:39:52.035Z,81.84
2022-12-20T12:43:03.578Z,81.67
2022-12-20T12:45:36.058Z,81.31
2022-12-20T12:48:09.364Z,81.43
2022-12-20T12:50:39.990Z,81.64
2022-12-20T12:53:14.308Z,82.65
2022-12-20T12:55:44.815Z,83.01
2022-12-20T12:58:35.537Z,81.74
2022-12-20T13:01:08.210Z,80.27
2022-12-20T13:03:46.105Z,80.26
2022-12-20T13:07:06.934Z,83.04
2022-12-20T13:09:40.158Z,82.51
2022-12-20T13:12:51.251Z,82.34
2022-12-20T13:16:06.540Z,82.39
2022-12-20T13:18:36.933Z,81.46
2022-12-20T13:21:19.753Z,81.71
2022-12-20T13:23:47.725Z,80.43
2022-12-20T13:26:50.607Z,79.88
2022-12-20T13:29:33.652Z,79.04
2022-12-20T13:32:02.971Z,78.78
2022-12-20T13:34:37.818Z,80.10
2022-12-20T13:37:29.200Z,80.29
2022-12-20T13:39:57.729Z,81.15
2022-12-20T13:42:38.067Z,81.00
2022-12-20T13:45:12.443Z,80.90
2022-12-20T13:47:47.746Z,80.30
2022-12-20T13:50:29.422Z,79.83
2022-12-20T13:52:57.567Z,78.93
2022-12-20T13:55:33.096Z,78.55
2022-12-20T13:58:06.278Z,78.51
2022-12-20T14:00:35.093Z,79.03
2022-12-20T14:03:04.310Z,78.99
2022-12-20T14:05:38.960Z,78.55
2022-12-20T14:08:09.874Z,78.01
2022-12-20T14:10:37.952Z,78.71
2022-12-20T14:13:20.810Z,78.71
2022-12-20T14:15:48.581Z,79.36
2022-12-20T14:18:20.922Z,79.68
2022-12-20T14:20:51.906Z,81.22
2022-12-20T14:23:23.496Z,80.67
2022-12-20T14:25:53.889Z,81.56
2022-12-20T14:28:32.589Z,80.79
2022-12-20T14:31:02.047Z,80.68
2022-12-20T14:33:36.854Z,80.88
2022-12-20T14:36:19.018Z,81.26
2022-12-20T14:38:56.089Z,81.18
2022-12-20T14:41:35.614Z,81.25
2022-12-20T14:44:23.612Z,80.92
2022-12-20T14:46:55.604Z,81.33
2022-12-20T14:49:30.420Z,81.48
2022-12-20T14:52:08.622Z,81.42
2022-12-20T14:55:07.278Z,82.39
2022-12-20T14:57:29.300Z,81.63
2022-12-20T15:00:11.503Z,82.07
2022-12-20T15:02:42.964Z,82.45
2022-12-20T15:05:45.361Z,83.11
2022-12-20T15:08:14.853Z,83.48
2022-12-20T15:10:43.169Z,82.94
2022-12-20T15:13:14.497Z,83.98
2022-12-20T15:15:42.578Z,83.96
2022-12-20T15:18:15.060Z,83.94
2022-12-20T15:20:45.742Z,84.08
2022-12-20T15:23:17.963Z,83.58
2022-12-20T15:25:46.088Z,83.18
2022-12-20T15:28:19.591Z,83.25
2022-12-20T15:30:48.330Z,83.17
2022-12-20T15:33:18.411Z,82.89
2022-12-20T15:35:50.083Z,83.99
2022-12-20T15:38:25.526Z,84.47
2022-12-20T15:41:06.064Z,84.67
2022-12-20T15:43:38.850Z,84.61
2022-12-20T15:46:06.952Z,86.27
2022-12-20T15:48:35.433Z,86.56
2022-12-20T15:51:15.328Z,87.46
2022-12-20T15:53:42.963Z,86.60
2022-12-20T15:56:18.096Z,87.56
2022-12-20T15:58:46.095Z,87.54
2022-12-20T16:01:21.225Z,87.56
2022-12-20T16:03:49.410Z,88.19
2022-12-20T16:06:20.834Z,88.36
2022-12-20T16:08:48.387Z,88.23
2022-12-20T16:11:22.450Z,88.18
2022-12-20T16:13:50.145Z,88.28
2022-12-20T16:16:19.457Z,88.24
2022-12-20T16:18:47.129Z,88.37
2022-12-20T16:21:19.631Z,88.25
2022-12-20T16:23:47.300Z,87.75
2022-12-20T16:26:16.125Z,87.76
2022-12-20T16:28:44.319Z,88.25
2022-12-20T16:31:22.579Z,88.08
2022-12-20T16:33:50.242Z,88.33
2022-12-20T16:36:23.783Z,87.99
2022-12-20T16:38:52.051Z,89.10
2022-12-20T16:41:22.455Z,88.75
2022-12-20T16:43:50.183Z,88.88
2022-12-20T16:46:20.632Z,89.39
2022-12-20T16:48:49.137Z,88.99
2022-12-20T16:51:27.398Z,88.77
2022-12-20T16:56:45.165Z,88.26
2022-12-20T16:59:21.976Z,88.78
2022-12-20T17:01:52.604Z,88.81
2022-12-20T17:04:21.134Z,88.54
2022-12-20T17:06:50.862Z,88.75
2022-12-20T17:12:10.763Z,88.39
2022-12-20T17:14:38.642Z,88.86
2022-12-20T17:17:08.895Z,89.36
2022-12-20T17:19:38.304Z,89.50
2022-12-20T17:22:23.268Z,89.13
2022-12-20T17:24:51.040Z,88.93
2022-12-20T17:27:19.042Z,88.46
2022-12-20T17:29:46.980Z,88.72
2022-12-20T17:32:26.387Z,88.24
2022-12-20T17:34:55.126Z,88.67
2022-12-20T17:37:24.997Z,88.45
2022-12-20T17:39:52.575Z,88.96
2022-12-20T17:42:27.073Z,88.88
2022-12-20T17:44:58.491Z,88.71
2022-12-20T17:47:26.199Z,88.82
2022-12-20T17:49:54.322Z,88.89
2022-12-20T17:52:22.638Z,88.69
2022-12-20T17:54:51.927Z,88.36
2022-12-20T17:57:19.501Z,88.46
2022-12-20T17:59:48.214Z,87.33
2022-12-20T18:02:24.122Z,88.05
2022-12-20T18:04:52.379Z,87.73
2022-12-20T18:07:20.374Z,87.37
2022-12-20T18:09:48.741Z,87.68
2022-12-20T18:12:18.413Z,88.07
2022-12-20T18:14:46.065Z,88.64
2022-12-20T18:17:13.679Z,88.61
2022-12-20T18:19:41.563Z,87.74
2022-12-20T18:22:09.127Z,88.60
2022-12-20T18:24:38.989Z,88.52
2022-12-20T18:27:06.743Z,88.64
2022-12-20T18:29:35.893Z,87.62
2022-12-20T18:32:03.553Z,88.71
2022-12-20T18:34:31.286Z,89.38
2022-12-20T18:36:58.823Z,89.10
2022-12-20T18:39:26.460Z,89.10
2022-12-20T18:41:53.997Z,88.60
2022-12-20T18:44:21.538Z,88.79
2022-12-20T18:46:50.685Z,89.23
2022-12-20T18:49:18.959Z,89.34
2022-12-20T18:51:46.533Z,89.50
2022-12-20T18:54:14.786Z,89.01
2022-12-20T18:56:42.382Z,88.89
2022-12-20T18:59:12.635Z,88.93
2022-12-20T19:01:43.192Z,88.13
2022-12-20T19:04:12.836Z,87.92
2022-12-20T19:06:40.970Z,88.29
2022-12-20T19:09:11.326Z,89.31
2022-12-20T19:11:39.215Z,89.05
2022-12-20T19:14:07.572Z,89.19
2022-12-20T19:16:43.479Z,89.36
2022-12-20T19:19:23.691Z,88.66
2022-12-20T19:21:53.911Z,88.48
2022-12-20T19:24:21.543Z,88.57
2022-12-20T19:26:49.090Z,88.78
2022-12-20T19:29:16.608Z,89.57
2022-12-20T19:31:44.531Z,90.60
2022-12-20T19:34:15.478Z,90.82
2022-12-20T19:36:44.899Z,91.56
2022-12-20T19:39:18.063Z,91.43
2022-12-20T19:42:05.923Z,91.71
2022-12-20T19:44:33.275Z,92.43
2022-12-20T19:47:07.201Z,91.78
2022-12-20T19:49:36.877Z,90.29
2022-12-20T19:52:05.703Z,90.50
2022-12-20T19:54:33.820Z,90.74
2022-12-20T19:57:01.524Z,90.82
2022-12-20T19:59:30.581Z,89.70
2022-12-20T20:01:58.278Z,88.91
2022-12-20T20:04:25.910Z,89.76
2022-12-20T20:06:56.272Z,90.19
2022-12-20T20:09:24.068Z,89.75
2022-12-20T20:11:51.677Z,89.04
2022-12-20T20:14:19.239Z,89.11
2022-12-20T20:16:46.871Z,89.33
2022-12-20T20:19:14.740Z,89.51
2022-12-20T20:21:42.713Z,89.86
2022-12-20T20:24:11.784Z,89.44
2022-12-20T20:26:40.254Z,90.37
2022-12-20T20:29:10.332Z,90.21
2022-12-20T20:31:38.647Z,91.36
2022-12-20T20:34:06.325Z,91.03
2022-12-20T20:36:33.989Z,91.86
2022-12-20T20:39:01.625Z,91.47
2022-12-20T20:41:31.608Z,92.03
2022-12-20T20:43:59.236Z,92.17
2022-12-20T20:46:26.908Z,92.22
2022-12-20T20:48:54.679Z,93.01
2022-12-20T20:51:22.469Z,92.71
2022-12-20T20:53:50.053Z,92.15
2022-12-20T20:56:17.651Z,92.06
2022-12-20T20:58:46.737Z,91.69
2022-12-20T21:01:14.412Z,91.14
2022-12-20T21:03:42.890Z,90.42
2022-12-20T21:08:58.487Z,90.69
2022-12-20T21:11:26.138Z,91.01
2022-12-20T21:13:56.052Z,90.72
2022-12-20T21:16:24.623Z,90.96
2022-12-20T21:18:52.846Z,91.19
2022-12-20T21:21:21.316Z,91.30
2022-12-20T21:23:49.791Z,91.41
2022-12-20T21:26:18.990Z,91.49
2022-12-20T21:28:46.693Z,92.10
2022-12-20T21:31:17.310Z,91.82
2022-12-20T21:33:46.100Z,92.53
2022-12-20T21:36:16.151Z,92.23
2022-12-20T21:38:47.597Z,92.35
2022-12-20T21:41:15.181Z,92.66
2022-12-20T21:43:42.748Z,93.64
2022-12-20T21:46:11.628Z,94.22
2022-12-20T21:48:41.481Z,94.07
2022-12-20T21:51:11.308Z,95.22
2022-12-20T21:53:43.439Z,94.54
2022-12-20T21:56:11.144Z,94.07
2022-12-20T21:58:38.877Z,93.98
2022-12-20T22:01:08.018Z,94.89
2022-12-20T22:03:35.882Z,94.39
2022-12-20T22:06:05.592Z,94.73
2022-12-20T22:08:34.438Z,95.12
2022-12-20T22:11:03.478Z,95.44
2022-12-20T22:13:37.099Z,95.16
2022-12-20T22:16:08.419Z,94.71
2022-12-20T22:18:36.703Z,95.19
2022-12-20T22:21:06.348Z,95.39
2022-12-20T22:23:34.303Z,94.84
2022-12-20T22:26:03.277Z,94.78
2022-12-20T22:28:30.822Z,94.21
2022-12-20T22:30:58.644Z,94.58
2022-12-20T22:33:26.280Z,95.89
2022-12-20T22:35:53.790Z,96.10
2022-12-20T22:38:22.616Z,95.52
2022-12-20T22:40:50.219Z,95.40
2022-12-20T22:43:17.745Z,95.84
2022-12-20T22:45:45.461Z,95.73
2022-12-20T22:48:13.040Z,96.16
2022-12-20T22:50:40.630Z,96.10
2022-12-20T22:53:08.133Z,95.75
2022-12-20T22:55:37.001Z,95.68
2022-12-20T22:58:04.468Z,95.53
2022-12-20T23:00:33.824Z,96.04
2022-12-20T23:03:01.630Z,95.95
2022-12-20T23:05:29.238Z,96.20
2022-12-20T23:07:57.237Z,96.21
2022-12-20T23:10:42.407Z,95.67
2022-12-20T23:13:30.605Z,95.38
2022-12-20T23:15:58.374Z,94.91
2022-12-20T23:18:25.879Z,95.12
2022-12-20T23:21:12.080Z,94.93
2022-12-20T23:23:39.658Z,95.18
2022-12-20T23:26:11.397Z,95.85
2022-12-20T23:28:40.462Z,96.04
2022-12-20T23:31:08.986Z,95.59
2022-12-20T23:33:36.761Z,95.03
2022-12-20T23:36:07.129Z,95.06
2022-12-20T23:38:35.804Z,94.64
2022-12-20T23:41:07.616Z,94.57
2022-12-20T23:43:35.193Z,94.94
2022-12-20T23:46:06.116Z,95.64
2022-12-20T23:48:34.155Z,95.53
2022-12-20T23:51:01.688Z,95.59
2022-12-20T23:53:30.236Z,95.40
2022-12-20T23:56:00.327Z,95.24
2022-12-20T23:58:27.895Z,94.66
